sensor_id;sensor_type;location;lat;lon;timestamp;P1;durP1;ratioP1;P2;durP2;ratioP2
13764;SDS011;6953;48.810;9.204;2023-01-20T00:01:25;0.70;;;0.70;;
13764;SDS011;6953;48.810;9.204;2023-01-20T00:03:51;0.80;;;0.80;;
13764;SDS011;6953;48.810;9.204;2023-01-20T00:06:18;0.80;;;0.80;;
13764;SDS011;6953;48.810;9.204;2023-01-20T00:08:44;0.80;;;0.80;;
13764;SDS011;6953;48.810;9.204;2023-01-20T00:11:14;0.90;;;0.90;;
13764;SDS011;6953;48.810;9.204;2023-01-20T00:13:39;0.90;;;0.90;;
13764;SDS011;6953;48.810;9.204;2023-01-20T00:16:06;0.90;;;0.90;;
13764;SDS011;6953;48.810;9.204;2023-01-20T00:18:33;0.80;;;0.80;;
13764;SDS011;6953;48.810;9.204;2023-01-20T00:21:17;0.80;;;0.80;;
13764;SDS011;6953;48.810;9.204;2023-01-20T00:23:43;0.70;;;0.70;;
13764;SDS011;6953;48.810;9.204;2023-01-20T00:26:11;0.80;;;0.80;;
13764;SDS011;6953;48.810;9.204;2023-01-20T00:28:41;0.97;;;0.97;;
13764;SDS011;6953;48.810;9.204;2023-01-20T00:31:13;0.90;;;0.90;;
13764;SDS011;6953;48.810;9.204;2023-01-20T00:33:40;0.80;;;0.80;;
13764;SDS011;6953;48.810;9.204;2023-01-20T00:36:06;0.80;;;0.80;;
13764;SDS011;6953;48.810;9.204;2023-01-20T00:38:32;0.90;;;0.90;;
13764;SDS011;6953;48.810;9.204;2023-01-20T00:40:58;0.80;;;0.80;;
13764;SDS011;6953;48.810;9.204;2023-01-20T00:43:23;0.90;;;0.90;;
13764;SDS011;6953;48.810;9.204;2023-01-20T00:45:48;0.73;;;0.73;;
13764;SDS011;6953;48.810;9.204;2023-01-20T00:48:14;0.90;;;0.90;;
13764;SDS011;6953;48.810;9.204;2023-01-20T00:50:39;1.00;;;1.00;;
13764;SDS011;6953;48.810;9.204;2023-01-20T00:53:04;0.80;;;0.80;;
13764;SDS011;6953;48.810;9.204;2023-01-20T00:55:30;0.73;;;0.73;;
13764;SDS011;6953;48.810;9.204;2023-01-20T00:57:55;0.80;;;0.80;;
13764;SDS011;6953;48.810;9.204;2023-01-20T01:00:20;0.80;;;0.80;;
13764;SDS011;6953;48.810;9.204;2023-01-20T01:02:46;0.80;;;0.80;;
13764;SDS011;6953;48.810;9.204;2023-01-20T01:05:11;0.80;;;0.80;;
13764;SDS011;6953;48.810;9.204;2023-01-20T01:07:36;0.70;;;0.70;;
13764;SDS011;6953;48.810;9.204;2023-01-20T01:10:02;0.80;;;0.80;;
13764;SDS011;6953;48.810;9.204;2023-01-20T01:12:28;0.70;;;0.70;;
13764;SDS011;6953;48.810;9.204;2023-01-20T01:14:53;0.70;;;0.70;;
13764;SDS011;6953;48.810;9.204;2023-01-20T01:17:18;0.90;;;0.90;;
13764;SDS011;6953;48.810;9.204;2023-01-20T01:19:45;0.90;;;0.90;;
13764;SDS011;6953;48.810;9.204;2023-01-20T01:22:10;0.90;;;0.90;;
13764;SDS011;6953;48.810;9.204;2023-01-20T01:24:35;0.80;;;0.80;;
13764;SDS011;6953;48.810;9.204;2023-01-20T01:27:01;0.90;;;0.90;;
13764;SDS011;6953;48.810;9.204;2023-01-20T01:29:28;0.80;;;0.80;;
13764;SDS011;6953;48.810;9.204;2023-01-20T01:31:53;0.90;;;0.90;;
13764;SDS011;6953;48.810;9.204;2023-01-20T01:34:19;0.90;;;0.90;;
13764;SDS011;6953;48.810;9.204;2023-01-20T01:36:44;0.90;;;0.90;;
13764;SDS011;6953;48.810;9.204;2023-01-20T01:39:09;0.80;;;0.80;;
13764;SDS011;6953;48.810;9.204;2023-01-20T01:41:34;0.80;;;0.80;;
13764;SDS011;6953;48.810;9.204;2023-01-20T01:46:30;0.90;;;0.90;;
13764;SDS011;6953;48.810;9.204;2023-01-20T01:48:56;0.90;;;0.90;;
13764;SDS011;6953;48.810;9.204;2023-01-20T01:51:26;0.80;;;0.80;;
13764;SDS011;6953;48.810;9.204;2023-01-20T01:53:57;0.90;;;0.90;;
13764;SDS011;6953;48.810;9.204;2023-01-20T01:56:26;0.93;;;0.93;;
13764;SDS011;6953;48.810;9.204;2023-01-20T01:58:54;0.80;;;0.80;;
13764;SDS011;6953;48.810;9.204;2023-01-20T02:01:22;0.90;;;0.90;;
13764;SDS011;6953;48.810;9.204;2023-01-20T02:03:53;0.90;;;0.90;;
13764;SDS011;6953;48.810;9.204;2023-01-20T02:06:20;0.90;;;0.90;;
13764;SDS011;6953;48.810;9.204;2023-01-20T02:08:48;0.80;;;0.80;;
13764;SDS011;6953;48.810;9.204;2023-01-20T02:11:15;0.70;;;0.70;;
13764;SDS011;6953;48.810;9.204;2023-01-20T02:13:40;0.80;;;0.80;;
13764;SDS011;6953;48.810;9.204;2023-01-20T02:19:26;0.70;;;0.70;;
13764;SDS011;6953;48.810;9.204;2023-01-20T02:22:04;0.70;;;0.70;;
13764;SDS011;6953;48.810;9.204;2023-01-20T02:30:09;0.87;;;0.87;;
13764;SDS011;6953;48.810;9.204;2023-01-20T02:35:26;0.80;;;0.80;;
13764;SDS011;6953;48.810;9.204;2023-01-20T02:43:37;0.90;;;0.90;;
13764;SDS011;6953;48.810;9.204;2023-01-20T02:46:08;0.90;;;0.90;;
13764;SDS011;6953;48.810;9.204;2023-01-20T02:48:51;0.90;;;0.90;;
13764;SDS011;6953;48.810;9.204;2023-01-20T02:51:30;0.70;;;0.70;;
13764;SDS011;6953;48.810;9.204;2023-01-20T02:54:06;0.70;;;0.70;;
13764;SDS011;6953;48.810;9.204;2023-01-20T02:56:34;0.87;;;0.87;;
13764;SDS011;6953;48.810;9.204;2023-01-20T02:59:05;0.80;;;0.80;;
13764;SDS011;6953;48.810;9.204;2023-01-20T03:01:38;0.80;;;0.80;;
13764;SDS011;6953;48.810;9.204;2023-01-20T03:04:15;0.70;;;0.70;;
13764;SDS011;6953;48.810;9.204;2023-01-20T03:06:46;0.80;;;0.80;;
13764;SDS011;6953;48.810;9.204;2023-01-20T03:09:19;0.80;;;0.80;;
13764;SDS011;6953;48.810;9.204;2023-01-20T03:11:50;0.80;;;0.80;;
13764;SDS011;6953;48.810;9.204;2023-01-20T03:14:20;0.70;;;0.70;;
13764;SDS011;6953;48.810;9.204;2023-01-20T03:16:46;0.80;;;0.80;;
13764;SDS011;6953;48.810;9.204;2023-01-20T03:19:12;0.80;;;0.80;;
13764;SDS011;6953;48.810;9.204;2023-01-20T03:21:39;0.80;;;0.80;;
13764;SDS011;6953;48.810;9.204;2023-01-20T03:24:05;0.80;;;0.80;;
13764;SDS011;6953;48.810;9.204;2023-01-20T03:26:31;0.90;;;0.90;;
13764;SDS011;6953;48.810;9.204;2023-01-20T03:28:57;0.80;;;0.80;;
13764;SDS011;6953;48.810;9.204;2023-01-20T03:31:27;0.73;;;0.73;;
13764;SDS011;6953;48.810;9.204;2023-01-20T03:33:57;0.80;;;0.80;;
13764;SDS011;6953;48.810;9.204;2023-01-20T03:36:26;0.70;;;0.70;;
13764;SDS011;6953;48.810;9.204;2023-01-20T03:38:53;0.80;;;0.80;;
13764;SDS011;6953;48.810;9.204;2023-01-20T03:46:36;0.80;;;0.80;;
13764;SDS011;6953;48.810;9.204;2023-01-20T03:49:28;0.80;;;0.80;;
13764;SDS011;6953;48.810;9.204;2023-01-20T03:54:51;0.80;;;0.80;;
13764;SDS011;6953;48.810;9.204;2023-01-20T03:57:23;0.80;;;0.80;;
13764;SDS011;6953;48.810;9.204;2023-01-20T03:59:53;0.83;;;0.83;;
13764;SDS011;6953;48.810;9.204;2023-01-20T04:02:20;0.80;;;0.80;;
13764;SDS011;6953;48.810;9.204;2023-01-20T04:04:47;0.90;;;0.90;;
13764;SDS011;6953;48.810;9.204;2023-01-20T04:07:17;0.80;;;0.80;;
13764;SDS011;6953;48.810;9.204;2023-01-20T04:09:46;0.73;;;0.73;;
13764;SDS011;6953;48.810;9.204;2023-01-20T04:12:19;0.70;;;0.70;;
13764;SDS011;6953;48.810;9.204;2023-01-20T04:14:45;0.70;;;0.70;;
13764;SDS011;6953;48.810;9.204;2023-01-20T04:17:10;0.87;;;0.87;;
13764;SDS011;6953;48.810;9.204;2023-01-20T04:19:36;0.80;;;0.80;;
13764;SDS011;6953;48.810;9.204;2023-01-20T04:24:36;0.80;;;0.80;;
13764;SDS011;6953;48.810;9.204;2023-01-20T04:27:08;0.80;;;0.80;;
13764;SDS011;6953;48.810;9.204;2023-01-20T04:29:33;0.77;;;0.77;;
13764;SDS011;6953;48.810;9.204;2023-01-20T04:31:59;0.90;;;0.90;;
13764;SDS011;6953;48.810;9.204;2023-01-20T04:34:25;0.90;;;0.90;;
13764;SDS011;6953;48.810;9.204;2023-01-20T04:36:51;0.80;;;0.80;;
13764;SDS011;6953;48.810;9.204;2023-01-20T04:39:16;0.97;;;0.97;;
13764;SDS011;6953;48.810;9.204;2023-01-20T04:41:41;0.70;;;0.70;;
13764;SDS011;6953;48.810;9.204;2023-01-20T04:44:07;0.80;;;0.80;;
13764;SDS011;6953;48.810;9.204;2023-01-20T04:46:32;0.73;;;0.73;;
13764;SDS011;6953;48.810;9.204;2023-01-20T04:48:57;0.70;;;0.70;;
13764;SDS011;6953;48.810;9.204;2023-01-20T04:51:23;0.70;;;0.70;;
13764;SDS011;6953;48.810;9.204;2023-01-20T04:53:48;0.90;;;0.90;;
13764;SDS011;6953;48.810;9.204;2023-01-20T04:56:13;0.80;;;0.80;;
13764;SDS011;6953;48.810;9.204;2023-01-20T04:58:39;0.80;;;0.80;;
13764;SDS011;6953;48.810;9.204;2023-01-20T05:01:05;0.80;;;0.80;;
13764;SDS011;6953;48.810;9.204;2023-01-20T05:03:31;0.70;;;0.70;;
13764;SDS011;6953;48.810;9.204;2023-01-20T05:05:56;0.80;;;0.80;;
13764;SDS011;6953;48.810;9.204;2023-01-20T05:08:22;0.73;;;0.73;;
13764;SDS011;6953;48.810;9.204;2023-01-20T05:10:47;0.70;;;0.70;;
13764;SDS011;6953;48.810;9.204;2023-01-20T05:13:13;0.70;;;0.70;;
13764;SDS011;6953;48.810;9.204;2023-01-20T05:15:38;0.80;;;0.80;;
13764;SDS011;6953;48.810;9.204;2023-01-20T05:18:04;0.80;;;0.80;;
13764;SDS011;6953;48.810;9.204;2023-01-20T05:20:29;0.70;;;0.70;;
13764;SDS011;6953;48.810;9.204;2023-01-20T05:22:55;0.80;;;0.80;;
13764;SDS011;6953;48.810;9.204;2023-01-20T05:25:20;0.70;;;0.70;;
13764;SDS011;6953;48.810;9.204;2023-01-20T05:27:45;0.90;;;0.90;;
13764;SDS011;6953;48.810;9.204;2023-01-20T05:30:11;0.70;;;0.70;;
13764;SDS011;6953;48.810;9.204;2023-01-20T05:32:37;0.80;;;0.80;;
13764;SDS011;6953;48.810;9.204;2023-01-20T05:35:02;0.80;;;0.80;;
13764;SDS011;6953;48.810;9.204;2023-01-20T05:37:28;0.70;;;0.70;;
13764;SDS011;6953;48.810;9.204;2023-01-20T05:39:53;0.90;;;0.90;;
13764;SDS011;6953;48.810;9.204;2023-01-20T05:42:19;0.90;;;0.90;;
13764;SDS011;6953;48.810;9.204;2023-01-20T05:44:44;0.70;;;0.70;;
13764;SDS011;6953;48.810;9.204;2023-01-20T05:47:09;0.70;;;0.70;;
13764;SDS011;6953;48.810;9.204;2023-01-20T05:49:35;0.90;;;0.90;;
13764;SDS011;6953;48.810;9.204;2023-01-20T05:52:00;0.80;;;0.80;;
13764;SDS011;6953;48.810;9.204;2023-01-20T05:54:25;0.80;;;0.80;;
13764;SDS011;6953;48.810;9.204;2023-01-20T05:57:06;0.80;;;0.80;;
13764;SDS011;6953;48.810;9.204;2023-01-20T05:59:32;0.80;;;0.80;;
13764;SDS011;6953;48.810;9.204;2023-01-20T06:01:57;0.80;;;0.80;;
13764;SDS011;6953;48.810;9.204;2023-01-20T06:04:22;0.80;;;0.80;;
13764;SDS011;6953;48.810;9.204;2023-01-20T06:06:48;0.80;;;0.80;;
13764;SDS011;6953;48.810;9.204;2023-01-20T06:09:13;0.90;;;0.90;;
13764;SDS011;6953;48.810;9.204;2023-01-20T06:11:38;0.90;;;0.90;;
13764;SDS011;6953;48.810;9.204;2023-01-20T06:14:04;0.83;;;0.83;;
13764;SDS011;6953;48.810;9.204;2023-01-20T06:16:29;0.90;;;0.90;;
13764;SDS011;6953;48.810;9.204;2023-01-20T06:18:54;0.90;;;0.90;;
13764;SDS011;6953;48.810;9.204;2023-01-20T06:21:21;0.80;;;0.80;;
13764;SDS011;6953;48.810;9.204;2023-01-20T06:23:47;0.80;;;0.80;;
13764;SDS011;6953;48.810;9.204;2023-01-20T06:26:13;0.80;;;0.80;;
13764;SDS011;6953;48.810;9.204;2023-01-20T06:28:38;0.93;;;0.93;;
13764;SDS011;6953;48.810;9.204;2023-01-20T06:31:05;0.73;;;0.73;;
13764;SDS011;6953;48.810;9.204;2023-01-20T06:33:35;0.70;;;0.70;;
13764;SDS011;6953;48.810;9.204;2023-01-20T06:36:01;0.80;;;0.80;;
13764;SDS011;6953;48.810;9.204;2023-01-20T06:38:30;0.70;;;0.70;;
13764;SDS011;6953;48.810;9.204;2023-01-20T06:40:57;0.80;;;0.80;;
13764;SDS011;6953;48.810;9.204;2023-01-20T06:43:27;0.70;;;0.70;;
13764;SDS011;6953;48.810;9.204;2023-01-20T06:45:57;0.80;;;0.80;;
13764;SDS011;6953;48.810;9.204;2023-01-20T06:48:26;0.70;;;0.70;;
13764;SDS011;6953;48.810;9.204;2023-01-20T06:50:51;0.80;;;0.80;;
13764;SDS011;6953;48.810;9.204;2023-01-20T06:53:17;0.70;;;0.70;;
13764;SDS011;6953;48.810;9.204;2023-01-20T06:55:42;0.77;;;0.77;;
13764;SDS011;6953;48.810;9.204;2023-01-20T06:58:07;0.80;;;0.80;;
13764;SDS011;6953;48.810;9.204;2023-01-20T07:00:33;0.90;;;0.90;;
13764;SDS011;6953;48.810;9.204;2023-01-20T07:02:58;0.80;;;0.80;;
13764;SDS011;6953;48.810;9.204;2023-01-20T07:05:24;0.70;;;0.70;;
13764;SDS011;6953;48.810;9.204;2023-01-20T07:07:49;0.90;;;0.90;;
13764;SDS011;6953;48.810;9.204;2023-01-20T07:10:14;0.80;;;0.80;;
13764;SDS011;6953;48.810;9.204;2023-01-20T07:12:40;0.90;;;0.90;;
13764;SDS011;6953;48.810;9.204;2023-01-20T07:15:05;0.90;;;0.90;;
13764;SDS011;6953;48.810;9.204;2023-01-20T07:17:31;0.80;;;0.80;;
13764;SDS011;6953;48.810;9.204;2023-01-20T07:19:56;0.80;;;0.80;;
13764;SDS011;6953;48.810;9.204;2023-01-20T07:22:22;0.80;;;0.80;;
13764;SDS011;6953;48.810;9.204;2023-01-20T07:24:47;0.87;;;0.87;;
13764;SDS011;6953;48.810;9.204;2023-01-20T07:27:12;0.80;;;0.80;;
13764;SDS011;6953;48.810;9.204;2023-01-20T07:29:39;0.90;;;0.90;;
13764;SDS011;6953;48.810;9.204;2023-01-20T07:32:04;0.80;;;0.80;;
13764;SDS011;6953;48.810;9.204;2023-01-20T07:34:30;0.80;;;0.80;;
13764;SDS011;6953;48.810;9.204;2023-01-20T07:36:55;1.00;;;1.00;;
13764;SDS011;6953;48.810;9.204;2023-01-20T07:39:21;0.80;;;0.80;;
13764;SDS011;6953;48.810;9.204;2023-01-20T07:41:46;0.80;;;0.80;;
13764;SDS011;6953;48.810;9.204;2023-01-20T07:44:14;0.80;;;0.80;;
13764;SDS011;6953;48.810;9.204;2023-01-20T07:46:40;0.80;;;0.80;;
13764;SDS011;6953;48.810;9.204;2023-01-20T07:49:05;0.90;;;0.90;;
13764;SDS011;6953;48.810;9.204;2023-01-20T07:51:31;0.90;;;0.90;;
13764;SDS011;6953;48.810;9.204;2023-01-20T07:53:56;0.80;;;0.80;;
13764;SDS011;6953;48.810;9.204;2023-01-20T07:56:23;0.90;;;0.90;;
13764;SDS011;6953;48.810;9.204;2023-01-20T07:58:50;0.80;;;0.80;;
13764;SDS011;6953;48.810;9.204;2023-01-20T08:01:28;0.70;;;0.70;;
13764;SDS011;6953;48.810;9.204;2023-01-20T08:03:56;0.90;;;0.90;;
13764;SDS011;6953;48.810;9.204;2023-01-20T08:06:24;0.90;;;0.90;;
13764;SDS011;6953;48.810;9.204;2023-01-20T08:08:50;0.80;;;0.80;;
13764;SDS011;6953;48.810;9.204;2023-01-20T08:11:16;0.70;;;0.70;;
13764;SDS011;6953;48.810;9.204;2023-01-20T08:13:43;0.80;;;0.80;;
13764;SDS011;6953;48.810;9.204;2023-01-20T08:16:10;0.73;;;0.73;;
13764;SDS011;6953;48.810;9.204;2023-01-20T08:18:37;0.77;;;0.77;;
13764;SDS011;6953;48.810;9.204;2023-01-20T08:21:03;0.80;;;0.80;;
13764;SDS011;6953;48.810;9.204;2023-01-20T08:23:32;0.80;;;0.80;;
13764;SDS011;6953;48.810;9.204;2023-01-20T08:25:59;0.90;;;0.90;;
13764;SDS011;6953;48.810;9.204;2023-01-20T08:28:26;0.70;;;0.70;;
13764;SDS011;6953;48.810;9.204;2023-01-20T08:30:52;0.80;;;0.80;;
13764;SDS011;6953;48.810;9.204;2023-01-20T08:33:17;0.70;;;0.70;;
13764;SDS011;6953;48.810;9.204;2023-01-20T08:35:43;0.70;;;0.70;;
13764;SDS011;6953;48.810;9.204;2023-01-20T08:38:09;0.70;;;0.70;;
13764;SDS011;6953;48.810;9.204;2023-01-20T08:40:34;0.63;;;0.63;;
13764;SDS011;6953;48.810;9.204;2023-01-20T08:42:59;0.60;;;0.60;;
13764;SDS011;6953;48.810;9.204;2023-01-20T08:45:25;0.80;;;0.80;;
13764;SDS011;6953;48.810;9.204;2023-01-20T08:47:50;0.70;;;0.70;;
13764;SDS011;6953;48.810;9.204;2023-01-20T08:50:16;0.70;;;0.70;;
13764;SDS011;6953;48.810;9.204;2023-01-20T08:52:41;0.70;;;0.70;;
13764;SDS011;6953;48.810;9.204;2023-01-20T08:55:07;0.63;;;0.63;;
13764;SDS011;6953;48.810;9.204;2023-01-20T08:57:33;0.60;;;0.60;;
13764;SDS011;6953;48.810;9.204;2023-01-20T08:59:59;0.60;;;0.60;;
13764;SDS011;6953;48.810;9.204;2023-01-20T09:02:24;0.73;;;0.73;;
13764;SDS011;6953;48.810;9.204;2023-01-20T09:04:50;0.70;;;0.70;;
13764;SDS011;6953;48.810;9.204;2023-01-20T09:07:17;0.70;;;0.70;;
13764;SDS011;6953;48.810;9.204;2023-01-20T09:09:43;0.60;;;0.60;;
13764;SDS011;6953;48.810;9.204;2023-01-20T09:12:09;0.70;;;0.70;;
13764;SDS011;6953;48.810;9.204;2023-01-20T09:14:34;0.80;;;0.80;;
13764;SDS011;6953;48.810;9.204;2023-01-20T09:16:59;0.70;;;0.70;;
13764;SDS011;6953;48.810;9.204;2023-01-20T09:19:26;0.80;;;0.80;;
13764;SDS011;6953;48.810;9.204;2023-01-20T09:21:52;0.70;;;0.70;;
13764;SDS011;6953;48.810;9.204;2023-01-20T09:24:17;0.70;;;0.70;;
13764;SDS011;6953;48.810;9.204;2023-01-20T09:26:43;0.60;;;0.60;;
13764;SDS011;6953;48.810;9.204;2023-01-20T09:29:13;0.70;;;0.70;;
13764;SDS011;6953;48.810;9.204;2023-01-20T09:31:40;0.70;;;0.70;;
13764;SDS011;6953;48.810;9.204;2023-01-20T09:34:08;0.70;;;0.70;;
13764;SDS011;6953;48.810;9.204;2023-01-20T09:36:34;0.80;;;0.80;;
13764;SDS011;6953;48.810;9.204;2023-01-20T09:38:59;0.70;;;0.70;;
13764;SDS011;6953;48.810;9.204;2023-01-20T09:41:57;0.60;;;0.60;;
13764;SDS011;6953;48.810;9.204;2023-01-20T09:44:55;0.60;;;0.60;;
13764;SDS011;6953;48.810;9.204;2023-01-20T09:47:37;0.70;;;0.70;;
13764;SDS011;6953;48.810;9.204;2023-01-20T09:55:58;0.60;;;0.60;;
13764;SDS011;6953;48.810;9.204;2023-01-20T10:03:58;0.60;;;0.60;;
13764;SDS011;6953;48.810;9.204;2023-01-20T10:06:29;0.53;;;0.53;;
13764;SDS011;6953;48.810;9.204;2023-01-20T10:09:01;0.60;;;0.60;;
13764;SDS011;6953;48.810;9.204;2023-01-20T10:11:40;0.50;;;0.50;;
13764;SDS011;6953;48.810;9.204;2023-01-20T10:17:00;0.50;;;0.50;;
13764;SDS011;6953;48.810;9.204;2023-01-20T10:19:34;0.60;;;0.60;;
13764;SDS011;6953;48.810;9.204;2023-01-20T10:27:50;0.60;;;0.60;;
13764;SDS011;6953;48.810;9.204;2023-01-20T10:30:45;0.50;;;0.50;;
13764;SDS011;6953;48.810;9.204;2023-01-20T10:33:12;0.60;;;0.60;;
13764;SDS011;6953;48.810;9.204;2023-01-20T10:35:48;0.50;;;0.50;;
13764;SDS011;6953;48.810;9.204;2023-01-20T10:38:23;0.70;;;0.70;;
13764;SDS011;6953;48.810;9.204;2023-01-20T10:41:12;0.50;;;0.50;;
13764;SDS011;6953;48.810;9.204;2023-01-20T10:43:57;0.70;;;0.70;;
13764;SDS011;6953;48.810;9.204;2023-01-20T10:46:37;0.67;;;0.67;;
13764;SDS011;6953;48.810;9.204;2023-01-20T10:57:36;0.60;;;0.60;;
13764;SDS011;6953;48.810;9.204;2023-01-20T11:00:03;0.60;;;0.60;;
13764;SDS011;6953;48.810;9.204;2023-01-20T11:02:35;0.50;;;0.50;;
13764;SDS011;6953;48.810;9.204;2023-01-20T11:07:39;0.40;;;0.40;;
13764;SDS011;6953;48.810;9.204;2023-01-20T11:10:15;0.30;;;0.30;;
13764;SDS011;6953;48.810;9.204;2023-01-20T11:12:43;0.20;;;0.20;;
13764;SDS011;6953;48.810;9.204;2023-01-20T11:15:30;0.20;;;0.20;;
13764;SDS011;6953;48.810;9.204;2023-01-20T11:25:59;0.35;;;0.35;;
13764;SDS011;6953;48.810;9.204;2023-01-20T11:28:36;0.30;;;0.30;;
13764;SDS011;6953;48.810;9.204;2023-01-20T11:31:09;0.40;;;0.40;;
13764;SDS011;6953;48.810;9.204;2023-01-20T11:33:35;0.52;;;0.52;;
13764;SDS011;6953;48.810;9.204;2023-01-20T11:36:01;0.57;;;0.57;;
13764;SDS011;6953;48.810;9.204;2023-01-20T11:38:31;0.50;;;0.50;;
13764;SDS011;6953;48.810;9.204;2023-01-20T11:41:16;0.60;;;0.60;;
13764;SDS011;6953;48.810;9.204;2023-01-20T11:43:46;0.40;;;0.40;;
13764;SDS011;6953;48.810;9.204;2023-01-20T11:46:31;0.40;;;0.40;;
13764;SDS011;6953;48.810;9.204;2023-01-20T11:51:53;0.30;;;0.30;;
13764;SDS011;6953;48.810;9.204;2023-01-20T11:54:27;0.30;;;0.30;;
13764;SDS011;6953;48.810;9.204;2023-01-20T11:56:54;0.45;;;0.45;;
13764;SDS011;6953;48.810;9.204;2023-01-20T11:59:33;0.30;;;0.30;;
13764;SDS011;6953;48.810;9.204;2023-01-20T12:02:14;0.40;;;0.40;;
13764;SDS011;6953;48.810;9.204;2023-01-20T12:09:58;0.60;;;0.60;;
13764;SDS011;6953;48.810;9.204;2023-01-20T12:12:48;0.50;;;0.50;;
13764;SDS011;6953;48.810;9.204;2023-01-20T12:15:20;0.50;;;0.50;;
13764;SDS011;6953;48.810;9.204;2023-01-20T12:17:53;0.50;;;0.50;;
13764;SDS011;6953;48.810;9.204;2023-01-20T12:31:01;0.40;;;0.40;;
13764;SDS011;6953;48.810;9.204;2023-01-20T12:33:29;0.40;;;0.40;;
13764;SDS011;6953;48.810;9.204;2023-01-20T12:42:08;0.50;;;0.50;;
13764;SDS011;6953;48.810;9.204;2023-01-20T12:55:46;0.60;;;0.60;;
13764;SDS011;6953;48.810;9.204;2023-01-20T13:20:43;0.67;;;0.67;;
13764;SDS011;6953;48.810;9.204;2023-01-20T13:23:11;0.70;;;0.70;;
13764;SDS011;6953;48.810;9.204;2023-01-20T13:25:49;0.70;;;0.70;;
13764;SDS011;6953;48.810;9.204;2023-01-20T13:28:16;0.60;;;0.60;;
13764;SDS011;6953;48.810;9.204;2023-01-20T13:30:45;0.70;;;0.70;;
13764;SDS011;6953;48.810;9.204;2023-01-20T13:35:58;0.60;;;0.60;;
13764;SDS011;6953;48.810;9.204;2023-01-20T13:38:42;0.70;;;0.70;;
13764;SDS011;6953;48.810;9.204;2023-01-20T13:41:11;0.70;;;0.70;;
13764;SDS011;6953;48.810;9.204;2023-01-20T13:48:36;0.63;;;0.63;;
13764;SDS011;6953;48.810;9.204;2023-01-20T13:53:51;0.70;;;0.70;;
13764;SDS011;6953;48.810;9.204;2023-01-20T13:56:29;0.70;;;0.70;;
13764;SDS011;6953;48.810;9.204;2023-01-20T13:58:59;0.70;;;0.70;;
13764;SDS011;6953;48.810;9.204;2023-01-20T14:01:25;0.77;;;0.77;;
13764;SDS011;6953;48.810;9.204;2023-01-20T14:04:02;0.60;;;0.60;;
13764;SDS011;6953;48.810;9.204;2023-01-20T14:06:28;0.70;;;0.70;;
13764;SDS011;6953;48.810;9.204;2023-01-20T14:08:56;0.70;;;0.70;;
13764;SDS011;6953;48.810;9.204;2023-01-20T14:11:24;0.60;;;0.60;;
13764;SDS011;6953;48.810;9.204;2023-01-20T14:13:55;0.70;;;0.70;;
13764;SDS011;6953;48.810;9.204;2023-01-20T14:19:01;0.70;;;0.70;;
13764;SDS011;6953;48.810;9.204;2023-01-20T14:21:40;0.70;;;0.70;;
13764;SDS011;6953;48.810;9.204;2023-01-20T14:27:20;0.63;;;0.63;;
13764;SDS011;6953;48.810;9.204;2023-01-20T14:30:42;0.50;;;0.50;;
13764;SDS011;6953;48.810;9.204;2023-01-20T14:32:47;0.60;;;0.60;;
13764;SDS011;6953;48.810;9.204;2023-01-20T14:35:34;0.60;;;0.60;;
13764;SDS011;6953;48.810;9.204;2023-01-20T14:37:59;0.70;;;0.70;;
13764;SDS011;6953;48.810;9.204;2023-01-20T14:40:31;0.60;;;0.60;;
13764;SDS011;6953;48.810;9.204;2023-01-20T14:43:12;0.60;;;0.60;;
13764;SDS011;6953;48.810;9.204;2023-01-20T14:45:41;0.60;;;0.60;;
13764;SDS011;6953;48.810;9.204;2023-01-20T14:48:09;0.70;;;0.70;;
13764;SDS011;6953;48.810;9.204;2023-01-20T14:50:36;0.80;;;0.80;;
13764;SDS011;6953;48.810;9.204;2023-01-20T14:53:03;0.60;;;0.60;;
13764;SDS011;6953;48.810;9.204;2023-01-20T14:58:00;0.70;;;0.70;;
13764;SDS011;6953;48.810;9.204;2023-01-20T15:00:32;0.67;;;0.67;;
13764;SDS011;6953;48.810;9.204;2023-01-20T15:03:03;0.80;;;0.80;;
13764;SDS011;6953;48.810;9.204;2023-01-20T15:05:55;0.70;;;0.70;;
13764;SDS011;6953;48.810;9.204;2023-01-20T15:08:45;0.70;;;0.70;;
13764;SDS011;6953;48.810;9.204;2023-01-20T15:13:42;0.70;;;0.70;;
13764;SDS011;6953;48.810;9.204;2023-01-20T15:21:51;0.80;;;0.80;;
13764;SDS011;6953;48.810;9.204;2023-01-20T15:24:21;0.80;;;0.80;;
13764;SDS011;6953;48.810;9.204;2023-01-20T15:26:52;0.80;;;0.80;;
13764;SDS011;6953;48.810;9.204;2023-01-20T15:29:22;0.60;;;0.60;;
13764;SDS011;6953;48.810;9.204;2023-01-20T15:31:50;0.80;;;0.80;;
13764;SDS011;6953;48.810;9.204;2023-01-20T15:34:16;0.70;;;0.70;;
13764;SDS011;6953;48.810;9.204;2023-01-20T15:36:42;0.70;;;0.70;;
13764;SDS011;6953;48.810;9.204;2023-01-20T15:39:12;0.73;;;0.73;;
13764;SDS011;6953;48.810;9.204;2023-01-20T15:41:45;0.60;;;0.60;;
13764;SDS011;6953;48.810;9.204;2023-01-20T15:44:12;0.70;;;0.70;;
13764;SDS011;6953;48.810;9.204;2023-01-20T15:46:40;0.80;;;0.80;;
13764;SDS011;6953;48.810;9.204;2023-01-20T15:49:12;0.60;;;0.60;;
13764;SDS011;6953;48.810;9.204;2023-01-20T15:51:41;0.80;;;0.80;;
13764;SDS011;6953;48.810;9.204;2023-01-20T15:54:07;0.80;;;0.80;;
13764;SDS011;6953;48.810;9.204;2023-01-20T15:56:35;0.70;;;0.70;;
13764;SDS011;6953;48.810;9.204;2023-01-20T15:59:16;0.80;;;0.80;;
13764;SDS011;6953;48.810;9.204;2023-01-20T16:01:44;0.80;;;0.80;;
13764;SDS011;6953;48.810;9.204;2023-01-20T16:04:11;0.83;;;0.83;;
13764;SDS011;6953;48.810;9.204;2023-01-20T16:06:36;0.90;;;0.90;;
13764;SDS011;6953;48.810;9.204;2023-01-20T16:09:02;0.70;;;0.70;;
13764;SDS011;6953;48.810;9.204;2023-01-20T16:11:43;0.90;;;0.90;;
13764;SDS011;6953;48.810;9.204;2023-01-20T16:14:08;0.80;;;0.80;;
13764;SDS011;6953;48.810;9.204;2023-01-20T16:16:34;0.80;;;0.80;;
13764;SDS011;6953;48.810;9.204;2023-01-20T16:18:59;0.80;;;0.80;;
13764;SDS011;6953;48.810;9.204;2023-01-20T16:21:25;0.70;;;0.70;;
13764;SDS011;6953;48.810;9.204;2023-01-20T16:23:50;0.73;;;0.73;;
13764;SDS011;6953;48.810;9.204;2023-01-20T16:28:49;0.80;;;0.80;;
13764;SDS011;6953;48.810;9.204;2023-01-20T16:31:15;0.83;;;0.83;;
13764;SDS011;6953;48.810;9.204;2023-01-20T16:33:41;0.80;;;0.80;;
13764;SDS011;6953;48.810;9.204;2023-01-20T16:36:14;0.80;;;0.80;;
13764;SDS011;6953;48.810;9.204;2023-01-20T16:38:41;0.80;;;0.80;;
13764;SDS011;6953;48.810;9.204;2023-01-20T16:41:22;0.80;;;0.80;;
13764;SDS011;6953;48.810;9.204;2023-01-20T16:43:49;0.87;;;0.87;;
13764;SDS011;6953;48.810;9.204;2023-01-20T16:46:20;0.90;;;0.90;;
13764;SDS011;6953;48.810;9.204;2023-01-20T16:48:47;0.90;;;0.90;;
13764;SDS011;6953;48.810;9.204;2023-01-20T16:51:14;0.87;;;0.87;;
13764;SDS011;6953;48.810;9.204;2023-01-20T16:53:50;0.80;;;0.80;;
13764;SDS011;6953;48.810;9.204;2023-01-20T16:56:17;0.90;;;0.90;;
13764;SDS011;6953;48.810;9.204;2023-01-20T16:58:51;0.80;;;0.80;;
13764;SDS011;6953;48.810;9.204;2023-01-20T17:01:18;0.80;;;0.80;;
13764;SDS011;6953;48.810;9.204;2023-01-20T17:03:47;1.30;;;1.30;;
13764;SDS011;6953;48.810;9.204;2023-01-20T17:06:15;1.20;;;1.20;;
13764;SDS011;6953;48.810;9.204;2023-01-20T17:08:46;1.20;;;1.20;;
13764;SDS011;6953;48.810;9.204;2023-01-20T17:11:26;1.20;;;1.20;;
13764;SDS011;6953;48.810;9.204;2023-01-20T17:13:53;1.17;;;1.17;;
13764;SDS011;6953;48.810;9.204;2023-01-20T17:16:19;0.90;;;0.90;;
13764;SDS011;6953;48.810;9.204;2023-01-20T17:18:56;1.20;;;1.20;;
13764;SDS011;6953;48.810;9.204;2023-01-20T17:21:22;1.10;;;1.10;;
13764;SDS011;6953;48.810;9.204;2023-01-20T17:23:50;1.20;;;1.20;;
13764;SDS011;6953;48.810;9.204;2023-01-20T17:26:17;1.30;;;1.30;;
13764;SDS011;6953;48.810;9.204;2023-01-20T17:28:43;1.20;;;1.20;;
13764;SDS011;6953;48.810;9.204;2023-01-20T17:31:08;1.23;;;1.23;;
13764;SDS011;6953;48.810;9.204;2023-01-20T17:33:34;1.30;;;1.30;;
13764;SDS011;6953;48.810;9.204;2023-01-20T17:36:00;1.30;;;1.30;;
13764;SDS011;6953;48.810;9.204;2023-01-20T17:38:28;1.30;;;1.30;;
13764;SDS011;6953;48.810;9.204;2023-01-20T17:41:01;1.10;;;1.10;;
13764;SDS011;6953;48.810;9.204;2023-01-20T17:43:34;1.30;;;1.30;;
13764;SDS011;6953;48.810;9.204;2023-01-20T17:46:00;1.10;;;1.10;;
13764;SDS011;6953;48.810;9.204;2023-01-20T17:48:41;0.93;;;0.93;;